sim
Sign-in with your pilot id or email,
or register
Callsign
Passwort

Schedule Details

Flight Number: DLH1988
Departure: Munich Airport (EDDM) at 13:40
Arrival: Cologne Bonn Airport (EDDK) at 14:45
Route: Lufthansa Passenger Schedule. Enter filed route here before submitting Pirep.

Weather Information
Getting current METAR information for EDDM 242120Z 16004KT 130V190 9999 -RA SCT040 16/14 Q1003 BECMG 25010KT
Getting current METAR information for EDDK 242120Z 14005KT 9999 -SHRA FEW035CB 15/12 Q0998 TEMPO SHRA

Schedule Frequency

Route Map